sensor_id;sensor_type;location;lat;lon;timestamp;pressure;altitude;pressure_sealevel;temperature;humidity
29315;BME280;16320;53.954;9.506;2023-05-28T00:00:33;102110.84;;;11.04;100.00
29315;BME280;16320;53.954;9.506;2023-05-28T00:03:37;102103.97;;;11.00;100.00
29315;BME280;16320;53.954;9.506;2023-05-28T00:06:42;102104.19;;;10.92;100.00
29315;BME280;16320;53.954;9.506;2023-05-28T00:09:47;102100.91;;;10.86;100.00
29315;BME280;16320;53.954;9.506;2023-05-28T00:12:53;102100.81;;;10.89;100.00
29315;BME280;16320;53.954;9.506;2023-05-28T00:15:57;102095.66;;;10.86;100.00
29315;BME280;16320;53.954;9.506;2023-05-28T00:19:04;102086.84;;;10.87;100.00
29315;BME280;16320;53.954;9.506;2023-05-28T00:22:09;102079.88;;;10.86;100.00
29315;BME280;16320;53.954;9.506;2023-05-28T00:25:13;102080.91;;;10.80;100.00
29315;BME280;16320;53.954;9.506;2023-05-28T00:28:17;102079.34;;;10.74;100.00
29315;BME280;16320;53.954;9.506;2023-05-28T00:31:22;102085.63;;;10.69;100.00
29315;BME280;16320;53.954;9.506;2023-05-28T00:34:26;102083.97;;;10.66;100.00
29315;BME280;16320;53.954;9.506;2023-05-28T00:37:31;102090.84;;;10.70;100.00
29315;BME280;16320;53.954;9.506;2023-05-28T00:40:35;102083.09;;;10.66;100.00
29315;BME280;16320;53.954;9.506;2023-05-28T00:43:39;102086.66;;;10.65;100.00
29315;BME280;16320;53.954;9.506;2023-05-28T00:46:45;102090.22;;;10.62;100.00
29315;BME280;16320;53.954;9.506;2023-05-28T00:49:50;102094.66;;;10.60;100.00
29315;BME280;16320;53.954;9.506;2023-05-28T00:52:55;102090.34;;;10.57;100.00
29315;BME280;16320;53.954;9.506;2023-05-28T00:56:01;102087.78;;;10.56;100.00
29315;BME280;16320;53.954;9.506;2023-05-28T00:59:06;102081.94;;;10.46;100.00
29315;BME280;16320;53.954;9.506;2023-05-28T01:02:11;102077.66;;;10.43;100.00
29315;BME280;16320;53.954;9.506;2023-05-28T01:05:16;102086.41;;;10.42;100.00
29315;BME280;16320;53.954;9.506;2023-05-28T01:08:21;102088.25;;;10.40;100.00
29315;BME280;16320;53.954;9.506;2023-05-28T01:11:26;102088.31;;;10.37;100.00
29315;BME280;16320;53.954;9.506;2023-05-28T01:14:31;102090.28;;;10.29;100.00
29315;BME280;16320;53.954;9.506;2023-05-28T01:17:36;102097.34;;;10.27;100.00
29315;BME280;16320;53.954;9.506;2023-05-28T01:20:42;102089.47;;;10.27;100.00
29315;BME280;16320;53.954;9.506;2023-05-28T01:23:47;102091.22;;;10.26;100.00
29315;BME280;16320;53.954;9.506;2023-05-28T01:26:52;102093.81;;;10.28;100.00
29315;BME280;16320;53.954;9.506;2023-05-28T01:29:57;102089.44;;;10.29;100.00
29315;BME280;16320;53.954;9.506;2023-05-28T01:33:02;102086.13;;;10.22;100.00
29315;BME280;16320;53.954;9.506;2023-05-28T01:36:23;102081.75;;;10.21;100.00
29315;BME280;16320;53.954;9.506;2023-05-28T01:39:35;102078.31;;;10.19;100.00
29315;BME280;16320;53.954;9.506;2023-05-28T01:42:45;102080.13;;;10.17;100.00
29315;BME280;16320;53.954;9.506;2023-05-28T01:45:51;102081.84;;;10.18;100.00
29315;BME280;16320;53.954;9.506;2023-05-28T01:48:56;102081.94;;;10.15;100.00
29315;BME280;16320;53.954;9.506;2023-05-28T01:52:02;102076.72;;;10.13;100.00
29315;BME280;16320;53.954;9.506;2023-05-28T01:55:07;102082.97;;;10.09;100.00
29315;BME280;16320;53.954;9.506;2023-05-28T01:58:15;102070.75;;;10.08;100.00
29315;BME280;16320;53.954;9.506;2023-05-28T02:01:32;102068.06;;;10.10;100.00
29315;BME280;16320;53.954;9.506;2023-05-28T02:04:39;102072.53;;;10.07;100.00
29315;BME280;16320;53.954;9.506;2023-05-28T02:07:44;102074.31;;;10.05;100.00
29315;BME280;16320;53.954;9.506;2023-05-28T02:10:49;102075.16;;;10.07;100.00
29315;BME280;16320;53.954;9.506;2023-05-28T02:13:54;102069.88;;;10.07;100.00
29315;BME280;16320;53.954;9.506;2023-05-28T02:16:58;102079.47;;;10.08;100.00
29315;BME280;16320;53.954;9.506;2023-05-28T02:20:05;102069.88;;;10.07;100.00
29315;BME280;16320;53.954;9.506;2023-05-28T02:23:10;102074.19;;;10.10;100.00
29315;BME280;16320;53.954;9.506;2023-05-28T02:26:15;102068.13;;;10.08;100.00
29315;BME280;16320;53.954;9.506;2023-05-28T02:29:19;102071.50;;;10.12;100.00
29315;BME280;16320;53.954;9.506;2023-05-28T02:32:23;102073.25;;;10.13;100.00
29315;BME280;16320;53.954;9.506;2023-05-28T02:35:28;102082.09;;;10.08;100.00
29315;BME280;16320;53.954;9.506;2023-05-28T02:38:32;102078.63;;;10.08;100.00
29315;BME280;16320;53.954;9.506;2023-05-28T02:41:36;102078.50;;;10.13;100.00
29315;BME280;16320;53.954;9.506;2023-05-28T02:44:41;102076.75;;;10.12;100.00
29315;BME280;16320;53.954;9.506;2023-05-28T02:47:46;102071.59;;;10.08;100.00
29315;BME280;16320;53.954;9.506;2023-05-28T02:50:50;102072.47;;;10.09;100.00
29315;BME280;16320;53.954;9.506;2023-05-28T02:53:54;102072.41;;;10.12;100.00
29315;BME280;16320;53.954;9.506;2023-05-28T02:56:59;102063.59;;;10.13;100.00
29315;BME280;16320;53.954;9.506;2023-05-28T03:00:05;102067.13;;;10.12;100.00
29315;BME280;16320;53.954;9.506;2023-05-28T03:03:14;102059.19;;;10.14;100.00
29315;BME280;16320;53.954;9.506;2023-05-28T03:06:18;102061.78;;;10.15;100.00
29315;BME280;16320;53.954;9.506;2023-05-28T03:09:23;102053.00;;;10.16;100.00
29315;BME280;16320;53.954;9.506;2023-05-28T03:12:27;102048.53;;;10.20;100.00
29315;BME280;16320;53.954;9.506;2023-05-28T03:15:31;102046.81;;;10.19;100.00
29315;BME280;16320;53.954;9.506;2023-05-28T03:18:35;102045.88;;;10.20;100.00
29315;BME280;16320;53.954;9.506;2023-05-28T03:21:39;102045.09;;;10.18;100.00
29315;BME280;16320;53.954;9.506;2023-05-28T03:24:45;102053.78;;;10.20;100.00
29315;BME280;16320;53.954;9.506;2023-05-28T03:27:52;102052.06;;;10.19;100.00
29315;BME280;16320;53.954;9.506;2023-05-28T03:30:56;102051.09;;;10.21;100.00
29315;BME280;16320;53.954;9.506;2023-05-28T03:34:02;102041.38;;;10.25;100.00
29315;BME280;16320;53.954;9.506;2023-05-28T03:37:06;102051.75;;;10.30;100.00
29315;BME280;16320;53.954;9.506;2023-05-28T03:40:11;102053.50;;;10.29;100.00
29315;BME280;16320;53.954;9.506;2023-05-28T03:43:15;102063.22;;;10.27;100.00
29315;BME280;16320;53.954;9.506;2023-05-28T03:46:20;102062.19;;;10.31;100.00
29315;BME280;16320;53.954;9.506;2023-05-28T03:49:24;102064.00;;;10.29;100.00
29315;BME280;16320;53.954;9.506;2023-05-28T03:52:29;102058.72;;;10.31;100.00
29315;BME280;16320;53.954;9.506;2023-05-28T03:55:34;102057.81;;;10.32;100.00
29315;BME280;16320;53.954;9.506;2023-05-28T03:58:40;102061.34;;;10.31;100.00
29315;BME280;16320;53.954;9.506;2023-05-28T04:01:46;102069.22;;;10.31;100.00
29315;BME280;16320;53.954;9.506;2023-05-28T04:04:51;102063.88;;;10.35;100.00
29315;BME280;16320;53.954;9.506;2023-05-28T04:07:56;102069.13;;;10.35;100.00
29315;BME280;16320;53.954;9.506;2023-05-28T04:11:00;102073.41;;;10.38;100.00
29315;BME280;16320;53.954;9.506;2023-05-28T04:14:04;102075.06;;;10.42;100.00
29315;BME280;16320;53.954;9.506;2023-05-28T04:17:09;102078.50;;;10.44;100.00
29315;BME280;16320;53.954;9.506;2023-05-28T04:20:16;102074.03;;;10.46;100.00
29315;BME280;16320;53.954;9.506;2023-05-28T04:23:21;102072.31;;;10.47;100.00
29315;BME280;16320;53.954;9.506;2023-05-28T04:26:26;102073.25;;;10.44;100.00
29315;BME280;16320;53.954;9.506;2023-05-28T04:29:31;102073.16;;;10.47;100.00
29315;BME280;16320;53.954;9.506;2023-05-28T04:32:36;102078.41;;;10.47;100.00
29315;BME280;16320;53.954;9.506;2023-05-28T04:35:43;102075.75;;;10.49;100.00
29315;BME280;16320;53.954;9.506;2023-05-28T04:38:47;102074.00;;;10.48;100.00
29315;BME280;16320;53.954;9.506;2023-05-28T04:41:52;102060.72;;;10.52;100.00
29315;BME280;16320;53.954;9.506;2023-05-28T04:44:58;102062.34;;;10.58;100.00
29315;BME280;16320;53.954;9.506;2023-05-28T04:48:02;102057.03;;;10.59;100.00
29315;BME280;16320;53.954;9.506;2023-05-28T04:51:08;102056.19;;;10.57;100.00
29315;BME280;16320;53.954;9.506;2023-05-28T04:54:12;102054.38;;;10.61;100.00
29315;BME280;16320;53.954;9.506;2023-05-28T04:57:17;102056.81;;;10.66;100.00
29315;BME280;16320;53.954;9.506;2023-05-28T05:00:21;102062.66;;;10.75;100.00
29315;BME280;16320;53.954;9.506;2023-05-28T05:03:30;102058.13;;;10.80;100.00
29315;BME280;16320;53.954;9.506;2023-05-28T05:06:36;102061.28;;;10.92;100.00
29315;BME280;16320;53.954;9.506;2023-05-28T05:09:40;102056.94;;;10.91;100.00
29315;BME280;16320;53.954;9.506;2023-05-28T05:12:46;102067.06;;;11.03;100.00
29315;BME280;16320;53.954;9.506;2023-05-28T05:15:50;102064.31;;;11.06;100.00
29315;BME280;16320;53.954;9.506;2023-05-28T05:18:55;102061.50;;;11.12;100.00
29315;BME280;16320;53.954;9.506;2023-05-28T05:22:02;102052.41;;;11.23;100.00
29315;BME280;16320;53.954;9.506;2023-05-28T05:25:09;102057.53;;;11.26;100.00
29315;BME280;16320;53.954;9.506;2023-05-28T05:28:13;102052.09;;;11.32;100.00
29315;BME280;16320;53.954;9.506;2023-05-28T05:31:18;102055.41;;;11.37;100.00
29315;BME280;16320;53.954;9.506;2023-05-28T05:34:22;102063.91;;;11.45;100.00
29315;BME280;16320;53.954;9.506;2023-05-28T05:37:28;102061.22;;;11.47;100.00
29315;BME280;16320;53.954;9.506;2023-05-28T05:40:32;102060.16;;;11.52;100.00
29315;BME280;16320;53.954;9.506;2023-05-28T05:43:37;102065.44;;;11.52;100.00
29315;BME280;16320;53.954;9.506;2023-05-28T05:46:42;102065.31;;;11.56;100.00
29315;BME280;16320;53.954;9.506;2023-05-28T05:49:47;102065.38;;;11.54;100.00
29315;BME280;16320;53.954;9.506;2023-05-28T05:52:51;102059.31;;;11.52;100.00
29315;BME280;16320;53.954;9.506;2023-05-28T05:55:55;102071.53;;;11.53;100.00
29315;BME280;16320;53.954;9.506;2023-05-28T05:59:00;102078.69;;;11.49;100.00
29315;BME280;16320;53.954;9.506;2023-05-28T06:02:06;102076.81;;;11.53;100.00
29315;BME280;16320;53.954;9.506;2023-05-28T06:05:11;102082.16;;;11.50;100.00
29315;BME280;16320;53.954;9.506;2023-05-28T06:08:16;102067.41;;;11.46;100.00
29315;BME280;16320;53.954;9.506;2023-05-28T06:11:20;102065.53;;;11.49;100.00
29315;BME280;16320;53.954;9.506;2023-05-28T06:14:28;102045.13;;;11.56;100.00
29315;BME280;16320;53.954;9.506;2023-05-28T06:17:32;102031.72;;;11.64;100.00
29315;BME280;16320;53.954;9.506;2023-05-28T06:20:37;102036.97;;;11.64;100.00
29315;BME280;16320;53.954;9.506;2023-05-28T06:23:42;102031.50;;;11.70;100.00
29315;BME280;16320;53.954;9.506;2023-05-28T06:26:47;102012.13;;;11.71;100.00
29315;BME280;16320;53.954;9.506;2023-05-28T06:29:52;102001.50;;;11.74;100.00
29315;BME280;16320;53.954;9.506;2023-05-28T06:32:56;102000.31;;;11.83;100.00
29315;BME280;16320;53.954;9.506;2023-05-28T06:36:03;102007.91;;;11.90;100.00
29315;BME280;16320;53.954;9.506;2023-05-28T06:39:07;102003.19;;;12.00;100.00
29315;BME280;16320;53.954;9.506;2023-05-28T06:42:12;102002.97;;;12.06;100.00
29315;BME280;16320;53.954;9.506;2023-05-28T06:45:17;101995.47;;;12.19;100.00
29315;BME280;16320;53.954;9.506;2023-05-28T06:48:23;101978.56;;;12.25;100.00
29315;BME280;16320;53.954;9.506;2023-05-28T06:51:27;101974.84;;;12.31;100.00
29315;BME280;16320;53.954;9.506;2023-05-28T06:54:31;101970.13;;;12.39;100.00
29315;BME280;16320;53.954;9.506;2023-05-28T06:57:35;101974.09;;;12.49;100.00
29315;BME280;16320;53.954;9.506;2023-05-28T07:00:41;101965.19;;;12.53;100.00
29315;BME280;16320;53.954;9.506;2023-05-28T07:03:46;101969.16;;;12.63;100.00
29315;BME280;16320;53.954;9.506;2023-05-28T07:06:51;101960.03;;;12.72;100.00
29315;BME280;16320;53.954;9.506;2023-05-28T07:09:55;101958.00;;;12.79;100.00
29315;BME280;16320;53.954;9.506;2023-05-28T07:13:00;101953.91;;;12.92;100.00
29315;BME280;16320;53.954;9.506;2023-05-28T07:16:06;101938.63;;;13.00;100.00
29315;BME280;16320;53.954;9.506;2023-05-28T07:19:11;101931.75;;;13.17;100.00
29315;BME280;16320;53.954;9.506;2023-05-28T07:22:16;101938.34;;;13.27;100.00
29315;BME280;16320;53.954;9.506;2023-05-28T07:25:20;101937.06;;;13.38;100.00
29315;BME280;16320;53.954;9.506;2023-05-28T07:28:24;101944.91;;;13.39;100.00
29315;BME280;16320;53.954;9.506;2023-05-28T07:31:29;101931.53;;;13.44;100.00
29315;BME280;16320;53.954;9.506;2023-05-28T07:34:35;101932.69;;;13.57;100.00
29315;BME280;16320;53.954;9.506;2023-05-28T07:37:40;101944.66;;;13.64;100.00
29315;BME280;16320;53.954;9.506;2023-05-28T07:40:47;101950.38;;;13.74;100.00
29315;BME280;16320;53.954;9.506;2023-05-28T07:43:53;101935.84;;;13.84;100.00
29315;BME280;16320;53.954;9.506;2023-05-28T07:46:57;101918.84;;;13.90;100.00
29315;BME280;16320;53.954;9.506;2023-05-28T07:50:03;101910.84;;;14.10;100.00
29315;BME280;16320;53.954;9.506;2023-05-28T07:53:10;101908.41;;;14.25;100.00
29315;BME280;16320;53.954;9.506;2023-05-28T07:56:14;101906.09;;;14.36;100.00
29315;BME280;16320;53.954;9.506;2023-05-28T07:59:18;101907.34;;;14.46;100.00
29315;BME280;16320;53.954;9.506;2023-05-28T08:02:28;101913.88;;;14.57;100.00
29315;BME280;16320;53.954;9.506;2023-05-28T08:05:33;101913.19;;;14.72;100.00
29315;BME280;16320;53.954;9.506;2023-05-28T08:08:38;101921.88;;;14.74;100.00
29315;BME280;16320;53.954;9.506;2023-05-28T08:11:45;101917.44;;;14.75;100.00
29315;BME280;16320;53.954;9.506;2023-05-28T08:14:50;101904.81;;;14.80;100.00
29315;BME280;16320;53.954;9.506;2023-05-28T08:17:55;101905.13;;;14.91;100.00
29315;BME280;16320;53.954;9.506;2023-05-28T08:21:00;101904.69;;;15.00;100.00
29315;BME280;16320;53.954;9.506;2023-05-28T08:24:05;101906.69;;;15.13;100.00
29315;BME280;16320;53.954;9.506;2023-05-28T08:27:11;101897.19;;;15.26;100.00
29315;BME280;16320;53.954;9.506;2023-05-28T08:30:19;101909.28;;;15.30;100.00
29315;BME280;16320;53.954;9.506;2023-05-28T08:33:24;101904.44;;;15.23;100.00
29315;BME280;16320;53.954;9.506;2023-05-28T08:36:31;101902.84;;;15.36;100.00
29315;BME280;16320;53.954;9.506;2023-05-28T08:39:36;101899.34;;;15.51;100.00
29315;BME280;16320;53.954;9.506;2023-05-28T08:42:41;101902.63;;;15.72;100.00
29315;BME280;16320;53.954;9.506;2023-05-28T08:45:53;101900.13;;;15.87;100.00
29315;BME280;16320;53.954;9.506;2023-05-28T08:48:59;101895.84;;;15.84;100.00
29315;BME280;16320;53.954;9.506;2023-05-28T08:52:08;101882.91;;;16.10;100.00
29315;BME280;16320;53.954;9.506;2023-05-28T08:55:16;101892.00;;;16.06;100.00
29315;BME280;16320;53.954;9.506;2023-05-28T08:58:22;101881.91;;;15.97;100.00
29315;BME280;16320;53.954;9.506;2023-05-28T09:01:27;101896.63;;;16.18;100.00
29315;BME280;16320;53.954;9.506;2023-05-28T09:04:33;101880.72;;;16.18;100.00
29315;BME280;16320;53.954;9.506;2023-05-28T09:07:40;101886.25;;;16.29;100.00
29315;BME280;16320;53.954;9.506;2023-05-28T09:10:45;101884.72;;;16.25;100.00
29315;BME280;16320;53.954;9.506;2023-05-28T09:13:51;101885.28;;;16.31;100.00
29315;BME280;16320;53.954;9.506;2023-05-28T09:16:58;101889.91;;;16.43;100.00
29315;BME280;16320;53.954;9.506;2023-05-28T09:20:12;101876.38;;;16.47;100.00
29315;BME280;16320;53.954;9.506;2023-05-28T09:23:18;101871.00;;;16.63;100.00
29315;BME280;16320;53.954;9.506;2023-05-28T09:26:33;101875.59;;;16.76;100.00
29315;BME280;16320;53.954;9.506;2023-05-28T09:29:38;101869.72;;;16.71;100.00
29315;BME280;16320;53.954;9.506;2023-05-28T09:32:43;101870.56;;;16.71;100.00
29315;BME280;16320;53.954;9.506;2023-05-28T09:35:58;101869.38;;;16.91;100.00
29315;BME280;16320;53.954;9.506;2023-05-28T09:39:08;101870.94;;;16.95;100.00
29315;BME280;16320;53.954;9.506;2023-05-28T09:42:13;101878.13;;;16.93;100.00
29315;BME280;16320;53.954;9.506;2023-05-28T09:45:23;101878.63;;;17.00;100.00
29315;BME280;16320;53.954;9.506;2023-05-28T09:48:30;101875.31;;;16.96;100.00
29315;BME280;16320;53.954;9.506;2023-05-28T09:51:34;101873.97;;;17.04;100.00
29315;BME280;16320;53.954;9.506;2023-05-28T09:54:41;101858.69;;;17.07;100.00
29315;BME280;16320;53.954;9.506;2023-05-28T09:58:02;101859.38;;;17.39;88.28
29315;BME280;16320;53.954;9.506;2023-05-28T10:01:11;101857.47;;;17.42;80.08
29315;BME280;16320;53.954;9.506;2023-05-28T10:04:23;101859.38;;;17.39;100.00
29315;BME280;16320;53.954;9.506;2023-05-28T10:07:41;101854.31;;;17.49;79.55
29315;BME280;16320;53.954;9.506;2023-05-28T10:10:52;101853.09;;;17.55;91.29
29315;BME280;16320;53.954;9.506;2023-05-28T10:14:00;101844.16;;;17.56;64.44
29315;BME280;16320;53.954;9.506;2023-05-28T10:17:17;101847.78;;;17.69;77.49
29315;BME280;16320;53.954;9.506;2023-05-28T10:20:22;101847.53;;;17.72;81.70
29315;BME280;16320;53.954;9.506;2023-05-28T10:23:33;101837.38;;;17.93;66.00
29315;BME280;16320;53.954;9.506;2023-05-28T10:26:39;101836.91;;;18.14;85.77
29315;BME280;16320;53.954;9.506;2023-05-28T10:29:47;101837.03;;;18.13;100.00
29315;BME280;16320;53.954;9.506;2023-05-28T10:32:56;101839.56;;;18.14;100.00
29315;BME280;16320;53.954;9.506;2023-05-28T10:36:03;101841.00;;;18.33;100.00
29315;BME280;16320;53.954;9.506;2023-05-28T10:39:14;101851.13;;;18.40;97.14
29315;BME280;16320;53.954;9.506;2023-05-28T10:42:21;101846.06;;;18.63;100.00
29315;BME280;16320;53.954;9.506;2023-05-28T10:45:35;101851.19;;;18.79;100.00
29315;BME280;16320;53.954;9.506;2023-05-28T10:52:21;101845.41;;;19.49;87.47
29315;BME280;16320;53.954;9.506;2023-05-28T10:55:32;101854.56;;;19.71;100.00
29315;BME280;16320;53.954;9.506;2023-05-28T10:58:59;101839.13;;;20.00;100.00
29315;BME280;16320;53.954;9.506;2023-05-28T11:02:28;101845.41;;;20.23;100.00
29315;BME280;16320;53.954;9.506;2023-05-28T11:05:35;101840.13;;;20.46;97.27
29315;BME280;16320;53.954;9.506;2023-05-28T11:09:06;101831.94;;;20.60;100.00
29315;BME280;16320;53.954;9.506;2023-05-28T11:12:16;101821.91;;;20.64;100.00
29315;BME280;16320;53.954;9.506;2023-05-28T11:15:21;101828.13;;;20.98;100.00
29315;BME280;16320;53.954;9.506;2023-05-28T11:18:26;101827.78;;;21.14;100.00
29315;BME280;16320;53.954;9.506;2023-05-28T11:25:31;101829.19;;;21.41;100.00
29315;BME280;16320;53.954;9.506;2023-05-28T11:28:40;101824.97;;;21.50;100.00
29315;BME280;16320;53.954;9.506;2023-05-28T11:31:51;101822.16;;;21.63;100.00
29315;BME280;16320;53.954;9.506;2023-05-28T11:35:02;101809.16;;;21.69;100.00
29315;BME280;16320;53.954;9.506;2023-05-28T11:39:07;101809.81;;;21.83;100.00
29315;BME280;16320;53.954;9.506;2023-05-28T11:42:25;101813.72;;;21.79;100.00
29315;BME280;16320;53.954;9.506;2023-05-28T11:45:59;101814.72;;;21.78;98.47
29315;BME280;16320;53.954;9.506;2023-05-28T11:49:30;101815.31;;;21.81;100.00
29315;BME280;16320;53.954;9.506;2023-05-28T11:53:01;101810.16;;;21.89;100.00
29315;BME280;16320;53.954;9.506;2023-05-28T11:56:12;101806.09;;;22.06;100.00
29315;BME280;16320;53.954;9.506;2023-05-28T11:59:17;101809.91;;;22.25;100.00
29315;BME280;16320;53.954;9.506;2023-05-28T12:02:22;101810.47;;;22.40;100.00
29315;BME280;16320;53.954;9.506;2023-05-28T12:05:37;101807.31;;;22.56;100.00
29315;BME280;16320;53.954;9.506;2023-05-28T12:08:44;101804.25;;;22.60;100.00
29315;BME280;16320;53.954;9.506;2023-05-28T12:12:11;101815.88;;;22.71;100.00
29315;BME280;16320;53.954;9.506;2023-05-28T12:15:28;101799.22;;;22.67;100.00
29315;BME280;16320;53.954;9.506;2023-05-28T12:18:34;101792.22;;;22.55;97.33
29315;BME280;16320;53.954;9.506;2023-05-28T12:21:39;101792.75;;;22.48;100.00
29315;BME280;16320;53.954;9.506;2023-05-28T12:24:49;101788.97;;;22.30;100.00
29315;BME280;16320;53.954;9.506;2023-05-28T12:27:55;101792.72;;;22.27;100.00
29315;BME280;16320;53.954;9.506;2023-05-28T12:31:01;101792.84;;;21.72;100.00
29315;BME280;16320;53.954;9.506;2023-05-28T12:34:05;101806.75;;;21.10;100.00
29315;BME280;16320;53.954;9.506;2023-05-28T12:37:10;101794.09;;;20.66;100.00
29315;BME280;16320;53.954;9.506;2023-05-28T12:40:14;101801.47;;;20.16;100.00
29315;BME280;16320;53.954;9.506;2023-05-28T12:43:23;101805.91;;;19.80;100.00
29315;BME280;16320;53.954;9.506;2023-05-28T12:46:27;101798.78;;;19.81;100.00
29315;BME280;16320;53.954;9.506;2023-05-28T12:49:33;101790.59;;;20.30;100.00
29315;BME280;16320;53.954;9.506;2023-05-28T12:52:37;101802.63;;;20.83;100.00
29315;BME280;16320;53.954;9.506;2023-05-28T12:55:41;101802.00;;;21.13;100.00
29315;BME280;16320;53.954;9.506;2023-05-28T12:58:46;101798.97;;;21.29;100.00
29315;BME280;16320;53.954;9.506;2023-05-28T13:01:51;101796.78;;;21.23;100.00
29315;BME280;16320;53.954;9.506;2023-05-28T13:04:56;101797.78;;;21.11;100.00
29315;BME280;16320;53.954;9.506;2023-05-28T13:08:01;101793.28;;;20.89;100.00
29315;BME280;16320;53.954;9.506;2023-05-28T13:11:07;101790.00;;;20.74;100.00
29315;BME280;16320;53.954;9.506;2023-05-28T13:14:12;101785.13;;;20.79;100.00
29315;BME280;16320;53.954;9.506;2023-05-28T13:17:16;101792.84;;;20.59;100.00
29315;BME280;16320;53.954;9.506;2023-05-28T13:20:21;101786.13;;;20.31;100.00
29315;BME280;16320;53.954;9.506;2023-05-28T13:23:25;101774.34;;;20.34;100.00
29315;BME280;16320;53.954;9.506;2023-05-28T13:26:33;101770.13;;;20.31;100.00
29315;BME280;16320;53.954;9.506;2023-05-28T13:29:38;101772.78;;;20.31;100.00
29315;BME280;16320;53.954;9.506;2023-05-28T13:32:43;101771.16;;;20.17;100.00
29315;BME280;16320;53.954;9.506;2023-05-28T13:35:47;101773.50;;;20.33;100.00
29315;BME280;16320;53.954;9.506;2023-05-28T13:38:52;101768.06;;;20.35;100.00
29315;BME280;16320;53.954;9.506;2023-05-28T13:41:58;101762.22;;;20.29;100.00
29315;BME280;16320;53.954;9.506;2023-05-28T13:45:03;101767.53;;;20.18;100.00
29315;BME280;16320;53.954;9.506;2023-05-28T13:48:08;101759.28;;;20.10;100.00
29315;BME280;16320;53.954;9.506;2023-05-28T13:51:13;101768.34;;;20.07;100.00
29315;BME280;16320;53.954;9.506;2023-05-28T13:54:17;101766.19;;;19.88;100.00
29315;BME280;16320;53.954;9.506;2023-05-28T13:57:21;101761.56;;;19.79;100.00
29315;BME280;16320;53.954;9.506;2023-05-28T14:00:25;101759.19;;;19.87;100.00
29315;BME280;16320;53.954;9.506;2023-05-28T14:03:41;101760.28;;;19.72;100.00
29315;BME280;16320;53.954;9.506;2023-05-28T14:06:50;101761.72;;;19.65;100.00
29315;BME280;16320;53.954;9.506;2023-05-28T14:09:54;101757.63;;;19.72;100.00
29315;BME280;16320;53.954;9.506;2023-05-28T14:12:58;101753.25;;;19.71;100.00
29315;BME280;16320;53.954;9.506;2023-05-28T14:16:04;101749.63;;;19.72;100.00
29315;BME280;16320;53.954;9.506;2023-05-28T14:19:08;101759.88;;;19.78;100.00
29315;BME280;16320;53.954;9.506;2023-05-28T14:22:12;101750.91;;;19.79;100.00
29315;BME280;16320;53.954;9.506;2023-05-28T14:25:17;101752.06;;;19.75;100.00
29315;BME280;16320;53.954;9.506;2023-05-28T14:28:21;101755.06;;;19.70;100.00
29315;BME280;16320;53.954;9.506;2023-05-28T14:31:26;101765.00;;;19.68;100.00
29315;BME280;16320;53.954;9.506;2023-05-28T14:34:31;101760.72;;;19.66;100.00
29315;BME280;16320;53.954;9.506;2023-05-28T14:37:35;101774.31;;;19.63;100.00
29315;BME280;16320;53.954;9.506;2023-05-28T14:40:40;101767.88;;;19.65;100.00
29315;BME280;16320;53.954;9.506;2023-05-28T14:43:45;101763.31;;;19.54;100.00
29315;BME280;16320;53.954;9.506;2023-05-28T14:46:49;101777.44;;;19.44;100.00
29315;BME280;16320;53.954;9.506;2023-05-28T14:50:42;101778.81;;;19.49;100.00
29315;BME280;16320;53.954;9.506;2023-05-28T14:53:47;101784.78;;;19.53;100.00
29315;BME280;16320;53.954;9.506;2023-05-28T14:56:51;101778.06;;;19.47;100.00
29315;BME280;16320;53.954;9.506;2023-05-28T15:00:07;101771.50;;;19.40;100.00
29315;BME280;16320;53.954;9.506;2023-05-28T15:03:14;101775.13;;;19.39;100.00
29315;BME280;16320;53.954;9.506;2023-05-28T15:06:19;101779.81;;;19.35;100.00
29315;BME280;16320;53.954;9.506;2023-05-28T15:09:23;101780.44;;;19.39;100.00
29315;BME280;16320;53.954;9.506;2023-05-28T15:12:28;101772.91;;;19.33;100.00
29315;BME280;16320;53.954;9.506;2023-05-28T15:15:33;101779.00;;;19.22;100.00
29315;BME280;16320;53.954;9.506;2023-05-28T15:18:37;101781.41;;;19.01;100.00
29315;BME280;16320;53.954;9.506;2023-05-28T15:21:41;101782.84;;;19.05;100.00
29315;BME280;16320;53.954;9.506;2023-05-28T15:24:47;101770.16;;;19.09;100.00
29315;BME280;16320;53.954;9.506;2023-05-28T15:27:52;101785.22;;;18.97;100.00
29315;BME280;16320;53.954;9.506;2023-05-28T15:30:57;101765.31;;;18.90;100.00
29315;BME280;16320;53.954;9.506;2023-05-28T15:34:02;101772.84;;;18.96;100.00
29315;BME280;16320;53.954;9.506;2023-05-28T15:37:07;101776.91;;;18.89;100.00
29315;BME280;16320;53.954;9.506;2023-05-28T15:40:12;101763.91;;;18.97;100.00
29315;BME280;16320;53.954;9.506;2023-05-28T15:43:17;101769.03;;;18.87;100.00
29315;BME280;16320;53.954;9.506;2023-05-28T15:46:23;101780.94;;;18.81;100.00
29315;BME280;16320;53.954;9.506;2023-05-28T15:49:29;101773.59;;;18.72;100.00
29315;BME280;16320;53.954;9.506;2023-05-28T15:52:34;101776.06;;;18.75;100.00
29315;BME280;16320;53.954;9.506;2023-05-28T15:55:38;101778.19;;;18.70;100.00
29315;BME280;16320;53.954;9.506;2023-05-28T15:58:42;101786.69;;;18.62;100.00
29315;BME280;16320;53.954;9.506;2023-05-28T16:01:50;101798.38;;;18.60;100.00
29315;BME280;16320;53.954;9.506;2023-05-28T16:04:57;101786.91;;;18.59;100.00
29315;BME280;16320;53.954;9.506;2023-05-28T16:08:02;101782.63;;;18.70;100.00
29315;BME280;16320;53.954;9.506;2023-05-28T16:11:12;101785.19;;;18.71;100.00